sensor_id;sensor_type;location;lat;lon;timestamp;pressure;altitude;pressure_sealevel;temperature;humidity
58473;BME280;44775;51.564;5.460;2023-02-28T00:01:28;102816.16;;;-1.49;100.00
58473;BME280;44775;51.564;5.460;2023-02-28T00:03:53;102796.38;;;-1.60;100.00
58473;BME280;44775;51.564;5.460;2023-02-28T00:06:20;102804.16;;;-1.57;100.00
58473;BME280;44775;51.564;5.460;2023-02-28T00:08:46;102803.41;;;-1.62;100.00
58473;BME280;44775;51.564;5.460;2023-02-28T00:11:12;102811.25;;;-1.61;100.00
58473;BME280;44775;51.564;5.460;2023-02-28T00:13:43;102806.09;;;-1.64;100.00
58473;BME280;44775;51.564;5.460;2023-02-28T00:16:13;102810.47;;;-1.64;100.00
58473;BME280;44775;51.564;5.460;2023-02-28T00:18:40;102813.09;;;-1.64;100.00
58473;BME280;44775;51.564;5.460;2023-02-28T00:21:06;102812.03;;;-1.57;100.00
58473;BME280;44775;51.564;5.460;2023-02-28T00:23:31;102804.25;;;-1.60;100.00
58473;BME280;44775;51.564;5.460;2023-02-28T00:25:57;102800.69;;;-1.58;100.00
58473;BME280;44775;51.564;5.460;2023-02-28T00:28:23;102811.00;;;-1.52;100.00
58473;BME280;44775;51.564;5.460;2023-02-28T00:30:48;102802.19;;;-1.49;100.00
58473;BME280;44775;51.564;5.460;2023-02-28T00:33:13;102818.88;;;-1.52;100.00
58473;BME280;44775;51.564;5.460;2023-02-28T00:35:39;102796.38;;;-1.60;100.00
58473;BME280;44775;51.564;5.460;2023-02-28T00:38:04;102805.19;;;-1.63;100.00
58473;BME280;44775;51.564;5.460;2023-02-28T00:40:30;102792.22;;;-1.68;100.00
58473;BME280;44775;51.564;5.460;2023-02-28T00:42:56;102803.00;;;-1.47;100.00
58473;BME280;44775;51.564;5.460;2023-02-28T00:45:21;102804.31;;;-1.63;100.00
58473;BME280;44775;51.564;5.460;2023-02-28T00:47:46;102807.03;;;-1.67;100.00
58473;BME280;44775;51.564;5.460;2023-02-28T00:50:16;102801.06;;;-1.72;100.00
58473;BME280;44775;51.564;5.460;2023-02-28T00:52:41;102805.41;;;-1.71;100.00
58473;BME280;44775;51.564;5.460;2023-02-28T00:55:07;102797.63;;;-1.74;100.00
58473;BME280;44775;51.564;5.460;2023-02-28T00:57:32;102792.47;;;-1.77;100.00
58473;BME280;44775;51.564;5.460;2023-02-28T00:59:57;102795.53;;;-1.61;100.00
58473;BME280;44775;51.564;5.460;2023-02-28T01:02:23;102805.78;;;-1.52;100.00
58473;BME280;44775;51.564;5.460;2023-02-28T01:04:48;102805.25;;;-1.64;100.00
58473;BME280;44775;51.564;5.460;2023-02-28T01:07:13;102812.13;;;-1.60;100.00
58473;BME280;44775;51.564;5.460;2023-02-28T01:09:40;102800.88;;;-1.66;100.00
58473;BME280;44775;51.564;5.460;2023-02-28T01:12:07;102817.34;;;-1.60;100.00
58473;BME280;44775;51.564;5.460;2023-02-28T01:14:32;102819.16;;;-1.62;100.00
58473;BME280;44775;51.564;5.460;2023-02-28T01:16:58;102818.97;;;-1.56;100.00
58473;BME280;44775;51.564;5.460;2023-02-28T01:19:23;102815.38;;;-1.52;100.00
58473;BME280;44775;51.564;5.460;2023-02-28T01:21:48;102818.81;;;-1.50;100.00
58473;BME280;44775;51.564;5.460;2023-02-28T01:24:13;102818.91;;;-1.53;100.00
58473;BME280;44775;51.564;5.460;2023-02-28T01:26:39;102824.22;;;-1.56;100.00
58473;BME280;44775;51.564;5.460;2023-02-28T01:29:04;102821.81;;;-1.64;100.00
58473;BME280;44775;51.564;5.460;2023-02-28T01:31:29;102812.50;;;-1.76;100.00
58473;BME280;44775;51.564;5.460;2023-02-28T01:33:55;102821.16;;;-1.72;100.00
58473;BME280;44775;51.564;5.460;2023-02-28T01:36:22;102814.34;;;-1.78;100.00
58473;BME280;44775;51.564;5.460;2023-02-28T01:38:48;102828.25;;;-1.76;100.00
58473;BME280;44775;51.564;5.460;2023-02-28T01:41:18;102814.25;;;-1.75;100.00
58473;BME280;44775;51.564;5.460;2023-02-28T01:46:13;102812.34;;;-1.68;100.00
58473;BME280;44775;51.564;5.460;2023-02-28T01:48:42;102807.09;;;-1.70;100.00
58473;BME280;44775;51.564;5.460;2023-02-28T01:51:16;102808.72;;;-1.64;100.00
58473;BME280;44775;51.564;5.460;2023-02-28T01:53:47;102808.03;;;-1.72;100.00
58473;BME280;44775;51.564;5.460;2023-02-28T01:56:17;102792.44;;;-1.75;100.00
58473;BME280;44775;51.564;5.460;2023-02-28T01:58:47;102794.22;;;-1.77;100.00
58473;BME280;44775;51.564;5.460;2023-02-28T02:01:12;102797.84;;;-1.81;100.00
58473;BME280;44775;51.564;5.460;2023-02-28T02:03:53;102798.75;;;-1.84;100.00
58473;BME280;44775;51.564;5.460;2023-02-28T02:06:23;102794.38;;;-1.83;100.00
58473;BME280;44775;51.564;5.460;2023-02-28T02:08:49;102792.53;;;-1.80;100.00
58473;BME280;44775;51.564;5.460;2023-02-28T02:11:18;102795.31;;;-1.86;100.00
58473;BME280;44775;51.564;5.460;2023-02-28T02:16:36;102791.81;;;-1.85;100.00
58473;BME280;44775;51.564;5.460;2023-02-28T02:19:52;102789.19;;;-1.85;100.00
58473;BME280;44775;51.564;5.460;2023-02-28T02:25:19;102785.50;;;-1.78;100.00
58473;BME280;44775;51.564;5.460;2023-02-28T02:33:28;102778.41;;;-1.74;100.00
58473;BME280;44775;51.564;5.460;2023-02-28T02:41:17;102792.94;;;-1.62;100.00
58473;BME280;44775;51.564;5.460;2023-02-28T02:43:50;102778.88;;;-1.60;100.00
58473;BME280;44775;51.564;5.460;2023-02-28T02:46:22;102784.09;;;-1.58;100.00
58473;BME280;44775;51.564;5.460;2023-02-28T02:48:50;102784.97;;;-1.59;100.00
58473;BME280;44775;51.564;5.460;2023-02-28T02:51:20;102786.72;;;-1.58;100.00
58473;BME280;44775;51.564;5.460;2023-02-28T02:54:01;102788.28;;;-1.53;100.00
58473;BME280;44775;51.564;5.460;2023-02-28T02:56:29;102786.59;;;-1.55;100.00
58473;BME280;44775;51.564;5.460;2023-02-28T02:59:00;102780.31;;;-1.48;100.00
58473;BME280;44775;51.564;5.460;2023-02-28T03:01:27;102786.34;;;-1.46;100.00
58473;BME280;44775;51.564;5.460;2023-02-28T03:03:59;102780.03;;;-1.39;100.00
58473;BME280;44775;51.564;5.460;2023-02-28T03:06:26;102784.41;;;-1.38;100.00
58473;BME280;44775;51.564;5.460;2023-02-28T03:08:52;102780.72;;;-1.32;100.00
58473;BME280;44775;51.564;5.460;2023-02-28T03:11:17;102784.03;;;-1.26;100.00
58473;BME280;44775;51.564;5.460;2023-02-28T03:19:45;102782.00;;;-1.16;100.00
58473;BME280;44775;51.564;5.460;2023-02-28T03:25:07;102768.59;;;-1.07;100.00
58473;BME280;44775;51.564;5.460;2023-02-28T03:27:39;102786.03;;;-1.04;100.00
58473;BME280;44775;51.564;5.460;2023-02-28T03:30:39;102766.94;;;-1.09;100.00
58473;BME280;44775;51.564;5.460;2023-02-28T03:33:18;102771.13;;;-1.04;100.00
58473;BME280;44775;51.564;5.460;2023-02-28T03:35:54;102777.75;;;-0.92;100.00
58473;BME280;44775;51.564;5.460;2023-02-28T03:38:30;102781.06;;;-0.85;100.00
58473;BME280;44775;51.564;5.460;2023-02-28T03:41:05;102785.28;;;-0.80;100.00
58473;BME280;44775;51.564;5.460;2023-02-28T03:43:35;102785.19;;;-0.77;100.00
58473;BME280;44775;51.564;5.460;2023-02-28T03:46:08;102786.19;;;-0.81;100.00
58473;BME280;44775;51.564;5.460;2023-02-28T03:48:51;102786.69;;;-0.69;100.00
58473;BME280;44775;51.564;5.460;2023-02-28T03:51:19;102783.88;;;-0.63;100.00
58473;BME280;44775;51.564;5.460;2023-02-28T03:54:09;102799.66;;;-0.65;100.00
58473;BME280;44775;51.564;5.460;2023-02-28T03:56:59;102796.00;;;-0.59;100.00
58473;BME280;44775;51.564;5.460;2023-02-28T03:59:34;102794.81;;;-0.49;100.00
58473;BME280;44775;51.564;5.460;2023-02-28T04:02:01;102786.16;;;-0.53;100.00
58473;BME280;44775;51.564;5.460;2023-02-28T04:04:26;102756.91;;;-0.68;100.00
58473;BME280;44775;51.564;5.460;2023-02-28T04:06:52;102793.94;;;-0.50;100.00
58473;BME280;44775;51.564;5.460;2023-02-28T04:09:25;102784.19;;;-0.46;100.00
58473;BME280;44775;51.564;5.460;2023-02-28T04:11:52;102780.53;;;-0.40;100.00
58473;BME280;44775;51.564;5.460;2023-02-28T04:14:18;102776.91;;;-0.38;100.00
58473;BME280;44775;51.564;5.460;2023-02-28T04:16:43;102780.47;;;-0.39;100.00
58473;BME280;44775;51.564;5.460;2023-02-28T04:19:10;102785.63;;;-0.36;100.00
58473;BME280;44775;51.564;5.460;2023-02-28T04:21:41;102794.31;;;-0.34;99.94
58473;BME280;44775;51.564;5.460;2023-02-28T04:24:09;102785.72;;;-0.39;100.00
58473;BME280;44775;51.564;5.460;2023-02-28T04:26:40;102788.63;;;-0.21;99.28
58473;BME280;44775;51.564;5.460;2023-02-28T04:29:07;102800.97;;;-0.23;98.70
58473;BME280;44775;51.564;5.460;2023-02-28T04:31:33;102795.59;;;-0.20;98.71
58473;BME280;44775;51.564;5.460;2023-02-28T04:33:59;102793.03;;;-0.22;98.58
58473;BME280;44775;51.564;5.460;2023-02-28T04:36:25;102799.34;;;-0.28;100.00
58473;BME280;44775;51.564;5.460;2023-02-28T04:38:51;102803.81;;;-0.30;99.31
58473;BME280;44775;51.564;5.460;2023-02-28T04:41:16;102797.44;;;-0.22;99.71
58473;BME280;44775;51.564;5.460;2023-02-28T04:43:42;102799.25;;;-0.25;98.74
58473;BME280;44775;51.564;5.460;2023-02-28T04:46:08;102804.59;;;-0.28;99.50
58473;BME280;44775;51.564;5.460;2023-02-28T04:48:36;102801.19;;;-0.30;99.75
58473;BME280;44775;51.564;5.460;2023-02-28T04:51:13;102805.31;;;-0.22;99.65
58473;BME280;44775;51.564;5.460;2023-02-28T04:53:40;102798.56;;;-0.30;99.27
58473;BME280;44775;51.564;5.460;2023-02-28T04:56:08;102801.88;;;-0.25;98.67
58473;BME280;44775;51.564;5.460;2023-02-28T04:58:33;102803.66;;;-0.25;98.67
58473;BME280;44775;51.564;5.460;2023-02-28T05:03:40;102807.84;;;-0.19;98.19
58473;BME280;44775;51.564;5.460;2023-02-28T05:06:06;102810.59;;;-0.24;99.30
58473;BME280;44775;51.564;5.460;2023-02-28T05:08:32;102796.53;;;-0.21;99.55
58473;BME280;44775;51.564;5.460;2023-02-28T05:10:57;102794.09;;;-0.28;99.98
58473;BME280;44775;51.564;5.460;2023-02-28T05:13:24;102794.00;;;-0.25;99.14
58473;BME280;44775;51.564;5.460;2023-02-28T05:15:49;102808.72;;;-0.20;98.58
58473;BME280;44775;51.564;5.460;2023-02-28T05:18:14;102810.56;;;-0.22;99.22
58473;BME280;44775;51.564;5.460;2023-02-28T05:20:39;102791.38;;;-0.25;98.78
58473;BME280;44775;51.564;5.460;2023-02-28T05:23:05;102808.63;;;-0.17;99.23
58473;BME280;44775;51.564;5.460;2023-02-28T05:25:30;102812.69;;;-0.07;99.06
58473;BME280;44775;51.564;5.460;2023-02-28T05:27:55;102817.03;;;-0.06;99.69
58473;BME280;44775;51.564;5.460;2023-02-28T05:30:21;102816.31;;;-0.11;100.00
58473;BME280;44775;51.564;5.460;2023-02-28T05:32:49;102807.31;;;-0.04;99.39
58473;BME280;44775;51.564;5.460;2023-02-28T05:35:15;102816.22;;;-0.08;99.25
58473;BME280;44775;51.564;5.460;2023-02-28T05:37:40;102819.91;;;-0.14;100.00
58473;BME280;44775;51.564;5.460;2023-02-28T05:40:06;102814.72;;;-0.15;100.00
58473;BME280;44775;51.564;5.460;2023-02-28T05:42:35;102815.66;;;-0.18;100.00
58473;BME280;44775;51.564;5.460;2023-02-28T05:45:00;102810.38;;;-0.16;100.00
58473;BME280;44775;51.564;5.460;2023-02-28T05:47:25;102814.00;;;-0.20;100.00
58473;BME280;44775;51.564;5.460;2023-02-28T05:49:51;102826.28;;;-0.21;100.00
58473;BME280;44775;51.564;5.460;2023-02-28T05:52:16;102822.22;;;-0.31;100.00
58473;BME280;44775;51.564;5.460;2023-02-28T05:54:41;102816.88;;;-0.28;100.00
58473;BME280;44775;51.564;5.460;2023-02-28T05:57:07;102809.19;;;-0.34;100.00
58473;BME280;44775;51.564;5.460;2023-02-28T05:59:32;102821.56;;;-0.38;100.00
58473;BME280;44775;51.564;5.460;2023-02-28T06:01:57;102823.50;;;-0.43;100.00
58473;BME280;44775;51.564;5.460;2023-02-28T06:04:22;102811.56;;;-0.53;100.00
58473;BME280;44775;51.564;5.460;2023-02-28T06:06:49;102829.84;;;-0.50;100.00
58473;BME280;44775;51.564;5.460;2023-02-28T06:09:14;102820.41;;;-0.56;100.00
58473;BME280;44775;51.564;5.460;2023-02-28T06:11:40;102814.56;;;-0.65;100.00
58473;BME280;44775;51.564;5.460;2023-02-28T06:14:06;102838.03;;;-0.59;100.00
58473;BME280;44775;51.564;5.460;2023-02-28T06:16:33;102830.22;;;-0.62;100.00
58473;BME280;44775;51.564;5.460;2023-02-28T06:19:00;102841.66;;;-0.63;100.00
58473;BME280;44775;51.564;5.460;2023-02-28T06:21:27;102840.75;;;-0.62;100.00
58473;BME280;44775;51.564;5.460;2023-02-28T06:23:53;102827.69;;;-0.65;100.00
58473;BME280;44775;51.564;5.460;2023-02-28T06:26:18;102838.97;;;-0.62;100.00
58473;BME280;44775;51.564;5.460;2023-02-28T06:28:44;102840.66;;;-0.59;100.00
58473;BME280;44775;51.564;5.460;2023-02-28T06:31:11;102842.34;;;-0.58;100.00
58473;BME280;44775;51.564;5.460;2023-02-28T06:33:38;102848.28;;;-0.52;100.00
58473;BME280;44775;51.564;5.460;2023-02-28T06:36:04;102846.41;;;-0.48;100.00
58473;BME280;44775;51.564;5.460;2023-02-28T06:38:31;102840.72;;;-0.34;100.00
58473;BME280;44775;51.564;5.460;2023-02-28T06:40:57;102837.28;;;-0.36;100.00
58473;BME280;44775;51.564;5.460;2023-02-28T06:43:23;102846.88;;;-0.35;100.00
58473;BME280;44775;51.564;5.460;2023-02-28T06:45:49;102844.31;;;-0.37;100.00
58473;BME280;44775;51.564;5.460;2023-02-28T06:48:15;102836.34;;;-0.34;100.00
58473;BME280;44775;51.564;5.460;2023-02-28T06:50:41;102838.81;;;-0.29;100.00
58473;BME280;44775;51.564;5.460;2023-02-28T06:53:06;102838.75;;;-0.28;100.00
58473;BME280;44775;51.564;5.460;2023-02-28T06:55:31;102848.41;;;-0.28;100.00
58473;BME280;44775;51.564;5.460;2023-02-28T06:57:57;102851.09;;;-0.30;100.00
58473;BME280;44775;51.564;5.460;2023-02-28T07:00:23;102850.19;;;-0.29;100.00
58473;BME280;44775;51.564;5.460;2023-02-28T07:02:49;102855.53;;;-0.32;100.00
58473;BME280;44775;51.564;5.460;2023-02-28T07:05:15;102858.88;;;-0.27;100.00
58473;BME280;44775;51.564;5.460;2023-02-28T07:07:40;102857.25;;;-0.31;100.00
58473;BME280;44775;51.564;5.460;2023-02-28T07:10:12;102845.13;;;-0.35;100.00
58473;BME280;44775;51.564;5.460;2023-02-28T07:12:39;102847.72;;;-0.33;100.00
58473;BME280;44775;51.564;5.460;2023-02-28T07:15:05;102848.97;;;-0.18;100.00
58473;BME280;44775;51.564;5.460;2023-02-28T07:17:31;102857.97;;;-0.26;97.98
58473;BME280;44775;51.564;5.460;2023-02-28T07:19:56;102857.97;;;-0.26;97.39
58473;BME280;44775;51.564;5.460;2023-02-28T07:22:21;102869.06;;;-0.17;96.99
58473;BME280;44775;51.564;5.460;2023-02-28T07:24:47;102857.88;;;-0.22;95.70
58473;BME280;44775;51.564;5.460;2023-02-28T07:27:12;102857.03;;;0.04;91.89
58473;BME280;44775;51.564;5.460;2023-02-28T07:29:37;102859.03;;;-0.05;92.40
58473;BME280;44775;51.564;5.460;2023-02-28T07:32:03;102875.00;;;0.16;91.98
58473;BME280;44775;51.564;5.460;2023-02-28T07:34:28;102879.28;;;0.18;92.83
58473;BME280;44775;51.564;5.460;2023-02-28T07:36:54;102886.13;;;0.24;91.45
58473;BME280;44775;51.564;5.460;2023-02-28T07:39:21;102881.66;;;0.26;92.52
58473;BME280;44775;51.564;5.460;2023-02-28T07:41:47;102879.78;;;0.30;91.34
58473;BME280;44775;51.564;5.460;2023-02-28T07:44:12;102881.16;;;0.41;92.59
58473;BME280;44775;51.564;5.460;2023-02-28T07:46:37;102890.53;;;0.49;91.03
58473;BME280;44775;51.564;5.460;2023-02-28T07:49:04;102886.69;;;0.59;91.27
58473;BME280;44775;51.564;5.460;2023-02-28T07:51:30;102883.56;;;0.73;91.69
58473;BME280;44775;51.564;5.460;2023-02-28T07:53:56;102877.91;;;0.83;90.15
58473;BME280;44775;51.564;5.460;2023-02-28T07:56:21;102884.94;;;1.06;89.29
58473;BME280;44775;51.564;5.460;2023-02-28T07:58:46;102892.84;;;1.30;85.62
58473;BME280;44775;51.564;5.460;2023-02-28T08:01:12;102892.38;;;1.64;86.44
58473;BME280;44775;51.564;5.460;2023-02-28T08:03:38;102891.34;;;1.90;84.32
58473;BME280;44775;51.564;5.460;2023-02-28T08:06:05;102882.81;;;2.05;84.79
58473;BME280;44775;51.564;5.460;2023-02-28T08:08:31;102902.09;;;2.28;79.40
58473;BME280;44775;51.564;5.460;2023-02-28T08:11:01;102899.84;;;2.39;76.48
58473;BME280;44775;51.564;5.460;2023-02-28T08:13:28;102886.84;;;2.75;79.53
58473;BME280;44775;51.564;5.460;2023-02-28T08:15:54;102890.34;;;3.15;73.14
58473;BME280;44775;51.564;5.460;2023-02-28T08:18:20;102906.63;;;3.44;69.12
58473;BME280;44775;51.564;5.460;2023-02-28T08:20:46;102900.47;;;3.62;64.50
58473;BME280;44775;51.564;5.460;2023-02-28T08:23:11;102902.31;;;3.79;65.34
58473;BME280;44775;51.564;5.460;2023-02-28T08:25:36;102894.84;;;3.87;64.71
58473;BME280;44775;51.564;5.460;2023-02-28T08:28:02;102897.66;;;4.01;62.17
58473;BME280;44775;51.564;5.460;2023-02-28T08:30:27;102902.84;;;4.22;62.95
58473;BME280;44775;51.564;5.460;2023-02-28T08:32:52;102889.38;;;4.26;66.27
58473;BME280;44775;51.564;5.460;2023-02-28T08:35:18;102898.88;;;4.31;57.05
58473;BME280;44775;51.564;5.460;2023-02-28T08:37:43;102893.66;;;4.46;59.57
58473;BME280;44775;51.564;5.460;2023-02-28T08:40:09;102883.66;;;4.52;59.87
58473;BME280;44775;51.564;5.460;2023-02-28T08:42:35;102901.84;;;4.59;57.85
58473;BME280;44775;51.564;5.460;2023-02-28T08:45:00;102899.19;;;4.59;54.75
58473;BME280;44775;51.564;5.460;2023-02-28T08:47:26;102885.53;;;4.67;57.06
58473;BME280;44775;51.564;5.460;2023-02-28T08:49:51;102898.53;;;4.71;57.40
58473;BME280;44775;51.564;5.460;2023-02-28T08:52:16;102883.47;;;4.89;58.73
58473;BME280;44775;51.564;5.460;2023-02-28T08:54:42;102899.03;;;4.95;54.70
58473;BME280;44775;51.564;5.460;2023-02-28T08:57:07;102901.13;;;5.06;51.60
58473;BME280;44775;51.564;5.460;2023-02-28T08:59:32;102907.44;;;5.04;51.95
58473;BME280;44775;51.564;5.460;2023-02-28T09:01:58;102893.88;;;5.26;56.39
58473;BME280;44775;51.564;5.460;2023-02-28T09:04:23;102909.97;;;5.54;56.57
58473;BME280;44775;51.564;5.460;2023-02-28T09:06:48;102897.63;;;5.53;55.71
58473;BME280;44775;51.564;5.460;2023-02-28T09:09:15;102911.06;;;5.66;54.12
58473;BME280;44775;51.564;5.460;2023-02-28T09:11:40;102907.56;;;5.65;54.86
58473;BME280;44775;51.564;5.460;2023-02-28T09:14:05;102917.91;;;5.38;49.65
58473;BME280;44775;51.564;5.460;2023-02-28T09:16:32;102904.47;;;5.26;50.08
58473;BME280;44775;51.564;5.460;2023-02-28T09:18:57;102906.00;;;5.30;48.86
58473;BME280;44775;51.564;5.460;2023-02-28T09:21:23;102910.97;;;5.36;44.27
58473;BME280;44775;51.564;5.460;2023-02-28T09:23:49;102904.47;;;5.10;46.91
58473;BME280;44775;51.564;5.460;2023-02-28T09:26:21;102904.06;;;5.33;45.96
58473;BME280;44775;51.564;5.460;2023-02-28T09:28:47;102911.50;;;5.27;44.55
58473;BME280;44775;51.564;5.460;2023-02-28T09:31:20;102898.25;;;5.27;45.12
58473;BME280;44775;51.564;5.460;2023-02-28T09:33:46;102894.91;;;5.39;50.92
58473;BME280;44775;51.564;5.460;2023-02-28T09:36:12;102912.47;;;5.57;48.69
58473;BME280;44775;51.564;5.460;2023-02-28T09:38:37;102895.25;;;5.49;53.91
58473;BME280;44775;51.564;5.460;2023-02-28T09:41:08;102914.66;;;5.49;44.85
58473;BME280;44775;51.564;5.460;2023-02-28T09:43:38;102897.28;;;5.59;46.24
58473;BME280;44775;51.564;5.460;2023-02-28T09:46:23;102913.06;;;5.78;48.70
58473;BME280;44775;51.564;5.460;2023-02-28T09:48:51;102899.50;;;5.83;48.30
58473;BME280;44775;51.564;5.460;2023-02-28T09:51:32;102909.44;;;5.79;51.51
58473;BME280;44775;51.564;5.460;2023-02-28T09:53:58;102904.31;;;6.08;50.63
58473;BME280;44775;51.564;5.460;2023-02-28T09:56:45;102905.16;;;6.08;43.59
58473;BME280;44775;51.564;5.460;2023-02-28T10:07:02;102893.84;;;6.94;41.36
58473;BME280;44775;51.564;5.460;2023-02-28T10:09:33;102890.22;;;6.95;41.55
58473;BME280;44775;51.564;5.460;2023-02-28T10:12:05;102884.53;;;7.01;42.77
58473;BME280;44775;51.564;5.460;2023-02-28T10:14:33;102889.38;;;7.23;50.32
58473;BME280;44775;51.564;5.460;2023-02-28T10:17:02;102888.91;;;6.73;40.10
58473;BME280;44775;51.564;5.460;2023-02-28T10:22:21;102881.53;;;6.93;43.13
58473;BME280;44775;51.564;5.460;2023-02-28T10:24:54;102885.50;;;7.00;40.52
58473;BME280;44775;51.564;5.460;2023-02-28T10:27:27;102888.22;;;7.27;41.85
58473;BME280;44775;51.564;5.460;2023-02-28T10:29:56;102875.72;;;7.29;39.84
58473;BME280;44775;51.564;5.460;2023-02-28T10:32:26;102878.28;;;7.16;40.82
58473;BME280;44775;51.564;5.460;2023-02-28T10:35:21;102878.22;;;7.45;41.71
58473;BME280;44775;51.564;5.460;2023-02-28T10:37:50;102883.59;;;7.57;43.31
58473;BME280;44775;51.564;5.460;2023-02-28T10:42:59;102870.25;;;7.99;39.97
58473;BME280;44775;51.564;5.460;2023-02-28T10:45:25;102875.88;;;7.94;38.31
58473;BME280;44775;51.564;5.460;2023-02-28T10:47:58;102872.50;;;8.05;41.15
58473;BME280;44775;51.564;5.460;2023-02-28T10:50:35;102869.59;;;7.95;42.16
58473;BME280;44775;51.564;5.460;2023-02-28T10:58:48;102867.28;;;8.16;40.60
58473;BME280;44775;51.564;5.460;2023-02-28T11:03:44;102859.44;;;8.27;41.99
58473;BME280;44775;51.564;5.460;2023-02-28T11:06:19;102869.28;;;8.40;37.34
58473;BME280;44775;51.564;5.460;2023-02-28T11:08:51;102862.84;;;8.29;38.99
58473;BME280;44775;51.564;5.460;2023-02-28T11:11:18;102862.63;;;8.33;39.37
58473;BME280;44775;51.564;5.460;2023-02-28T11:13:45;102861.47;;;8.37;40.49
58473;BME280;44775;51.564;5.460;2023-02-28T11:16:13;102864.97;;;8.24;39.94
58473;BME280;44775;51.564;5.460;2023-02-28T11:21:16;102851.47;;;7.88;37.26
58473;BME280;44775;51.564;5.460;2023-02-28T11:23:43;102844.72;;;8.22;39.38
58473;BME280;44775;51.564;5.460;2023-02-28T11:26:09;102857.56;;;8.02;35.33
58473;BME280;44775;51.564;5.460;2023-02-28T11:28:39;102855.84;;;7.89;37.56
58473;BME280;44775;51.564;5.460;2023-02-28T11:33:43;102840.31;;;7.95;38.34
58473;BME280;44775;51.564;5.460;2023-02-28T11:36:19;102853.53;;;8.10;36.42
58473;BME280;44775;51.564;5.460;2023-02-28T11:38:45;102852.19;;;8.17;38.00
58473;BME280;44775;51.564;5.460;2023-02-28T11:46:51;102842.13;;;8.60;37.49
58473;BME280;44775;51.564;5.460;2023-02-28T11:52:16;102843.50;;;8.53;35.97
58473;BME280;44775;51.564;5.460;2023-02-28T11:57:21;102832.94;;;8.77;37.86
58473;BME280;44775;51.564;5.460;2023-02-28T12:00:11;102833.75;;;9.03;37.44
58473;BME280;44775;51.564;5.460;2023-02-28T12:02:53;102824.16;;;9.01;38.55
58473;BME280;44775;51.564;5.460;2023-02-28T12:05:33;102818.66;;;8.65;39.98
58473;BME280;44775;51.564;5.460;2023-02-28T12:11:13;102817.91;;;8.63;40.77
58473;BME280;44775;51.564;5.460;2023-02-28T12:13:46;102813.44;;;8.77;42.62
58473;BME280;44775;51.564;5.460;2023-02-28T12:19:20;102818.19;;;8.97;38.12
58473;BME280;44775;51.564;5.460;2023-02-28T12:22:55;102819.81;;;8.87;38.71
58473;BME280;44775;51.564;5.460;2023-02-28T12:27:49;102807.09;;;8.90;39.61
58473;BME280;44775;51.564;5.460;2023-02-28T12:32:56;102808.06;;;9.02;39.17
58473;BME280;44775;51.564;5.460;2023-02-28T12:35:27;102797.50;;;9.01;38.57
58473;BME280;44775;51.564;5.460;2023-02-28T12:38:12;102798.28;;;9.27;38.63
58473;BME280;44775;51.564;5.460;2023-02-28T12:40:57;102805.88;;;9.20;35.16
58473;BME280;44775;51.564;5.460;2023-02-28T12:43:32;102798.41;;;9.25;41.11
58473;BME280;44775;51.564;5.460;2023-02-28T12:48:37;102792.75;;;9.65;35.08
58473;BME280;44775;51.564;5.460;2023-02-28T12:51:06;102799.03;;;9.53;40.21
58473;BME280;44775;51.564;5.460;2023-02-28T12:58:56;102788.63;;;9.96;39.56
58473;BME280;44775;51.564;5.460;2023-02-28T13:09:25;102764.75;;;9.35;39.06
58473;BME280;44775;51.564;5.460;2023-02-28T13:11:54;102768.75;;;9.41;41.76
58473;BME280;44775;51.564;5.460;2023-02-28T13:14:36;102771.19;;;9.44;39.10
58473;BME280;44775;51.564;5.460;2023-02-28T13:19:39;102754.38;;;9.90;41.54
58473;BME280;44775;51.564;5.460;2023-02-28T13:24:51;102755.94;;;10.28;34.22
58473;BME280;44775;51.564;5.460;2023-02-28T13:27:23;102752.28;;;10.51;37.38
58473;BME280;44775;51.564;5.460;2023-02-28T13:29:50;102751.81;;;10.35;38.92
58473;BME280;44775;51.564;5.460;2023-02-28T13:32:28;102749.44;;;10.19;35.79
58473;BME280;44775;51.564;5.460;2023-02-28T13:39:55;102745.69;;;10.10;34.92
58473;BME280;44775;51.564;5.460;2023-02-28T13:42:47;102745.25;;;10.39;40.53
58473;BME280;44775;51.564;5.460;2023-02-28T13:45:21;102751.09;;;10.33;36.83
58473;BME280;44775;51.564;5.460;2023-02-28T13:48:02;102748.06;;;10.37;34.72
58473;BME280;44775;51.564;5.460;2023-02-28T13:50:35;102742.22;;;10.44;37.68
58473;BME280;44775;51.564;5.460;2023-02-28T13:55:48;102742.63;;;10.04;37.16
58473;BME280;44775;51.564;5.460;2023-02-28T13:58:32;102735.22;;;10.18;38.32
58473;BME280;44775;51.564;5.460;2023-02-28T14:06:37;102730.78;;;10.42;41.80
58473;BME280;44775;51.564;5.460;2023-02-28T14:09:24;102727.03;;;10.44;35.35
58473;BME280;44775;51.564;5.460;2023-02-28T14:11:52;102730.63;;;10.21;36.11
58473;BME280;44775;51.564;5.460;2023-02-28T14:17:03;102720.03;;;9.97;38.51
58473;BME280;44775;51.564;5.460;2023-02-28T14:19:31;102723.72;;;9.72;38.83
58473;BME280;44775;51.564;5.460;2023-02-28T14:32:33;102719.16;;;9.38;35.81
58473;BME280;44775;51.564;5.460;2023-02-28T14:35:17;102708.16;;;9.54;34.85
58473;BME280;44775;51.564;5.460;2023-02-28T14:37:45;102726.59;;;8.98;34.85
58473;BME280;44775;51.564;5.460;2023-02-28T14:40:14;102718.91;;;8.93;37.41
58473;BME280;44775;51.564;5.460;2023-02-28T14:42:48;102723.78;;;8.99;35.78
58473;BME280;44775;51.564;5.460;2023-02-28T14:45:20;102721.03;;;9.25;37.05
58473;BME280;44775;51.564;5.460;2023-02-28T14:47:47;102718.47;;;9.23;34.76
58473;BME280;44775;51.564;5.460;2023-02-28T14:50:21;102721.13;;;9.23;36.18
58473;BME280;44775;51.564;5.460;2023-02-28T14:52:50;102720.69;;;9.06;36.10
58473;BME280;44775;51.564;5.460;2023-02-28T14:55:18;102715.22;;;9.07;36.56
58473;BME280;44775;51.564;5.460;2023-02-28T15:54:59;102703.31;;;6.24;40.90
58473;BME280;44775;51.564;5.460;2023-02-28T16:01:20;102706.25;;;5.91;42.46
58473;BME280;44775;51.564;5.460;2023-02-28T16:03:50;102699.28;;;5.74;45.41
58473;BME280;44775;51.564;5.460;2023-02-28T16:06:26;102699.13;;;5.91;41.62
58473;BME280;44775;51.564;5.460;2023-02-28T16:08:51;102698.81;;;5.67;41.53